Time;durP1;ratioP1;P1;durP2;ratioP2;P2;SDS_P1;SDS_P2;PMS_P1;PMS_P2;Temp;Humidity;BMP_temperature;BMP_pressure;BME280_temperature;BME280_humidity;BME280_pressure;Samples;Min_cycle;Max_cycle;Signal;HPM_P1;HPM_P2
2023/04/29 00:00:07;;;;;;;29.10;19.75;;;11.20;99.90;;;;;;5013846;28;20132;-70
2023/04/29 00:02:33;;;;;;;27.45;18.40;;;11.20;99.90;;;;;;5014153;28;20038;-70
2023/04/29 00:04:59;;;;;;;30.45;18.08;;;11.20;99.90;;;;;;5013867;28;20029;-70
2023/04/29 00:07:25;;;;;;;27.23;18.90;;;11.20;99.90;;;;;;5013818;28;20026;-71
2023/04/29 00:09:50;;;;;;;31.77;19.67;;;11.20;99.90;;;;;;4996189;28;20030;-71
2023/04/29 00:12:17;;;;;;;33.20;20.05;;;11.20;99.90;;;;;;5013485;28;20022;-71
2023/04/29 00:14:42;;;;;;;30.80;19.17;;;11.20;99.90;;;;;;5013471;28;20482;-71
2023/04/29 00:17:08;;;;;;;31.05;19.42;;;11.20;99.90;;;;;;5013682;28;20110;-71
2023/04/29 00:19:34;;;;;;;29.38;19.88;;;11.30;99.90;;;;;;5013945;28;20022;-71
2023/04/29 00:22:00;;;;;;;35.08;19.77;;;11.30;99.90;;;;;;4997010;28;20524;-72
2023/04/29 00:24:26;;;;;;;25.58;18.88;;;11.30;99.90;;;;;;5014010;28;20054;-71
2023/04/29 00:26:52;;;;;;;29.40;19.50;;;11.20;99.90;;;;;;4996757;28;20025;-71
2023/04/29 00:29:17;;;;;;;28.75;19.45;;;11.20;99.90;;;;;;5014158;28;20071;-71
2023/04/29 00:31:43;;;;;;;27.45;19.27;;;11.20;99.90;;;;;;5012348;28;20026;-72
2023/04/29 00:34:09;;;;;;;31.10;18.88;;;11.20;99.90;;;;;;5013583;28;20486;-71
2023/04/29 00:36:35;;;;;;;27.25;18.45;;;11.20;99.90;;;;;;5013554;28;20054;-71
2023/04/29 00:39:02;;;;;;;31.05;19.92;;;11.20;99.90;;;;;;5013510;28;20152;-71
2023/04/29 00:41:28;;;;;;;34.67;22.08;;;11.20;99.90;;;;;;5013724;28;20359;-71
2023/04/29 00:43:54;;;;;;;32.83;20.38;;;11.20;99.90;;;;;;4995853;28;20038;-71
2023/04/29 00:46:20;;;;;;;32.58;20.58;;;11.20;99.90;;;;;;5013687;28;20367;-71
2023/04/29 00:48:45;;;;;;;34.95;21.23;;;11.20;99.90;;;;;;5013446;28;20068;-71
2023/04/29 00:51:12;;;;;;;32.22;21.60;;;11.20;99.90;;;;;;4996574;28;20029;-72
2023/04/29 00:53:38;;;;;;;35.45;22.60;;;11.20;99.90;;;;;;5016973;28;20044;-72
2023/04/29 00:56:06;;;;;;;32.60;21.38;;;11.20;99.90;;;;;;4999237;28;20026;-72
2023/04/29 00:58:34;;;;;;;34.22;21.42;;;11.20;99.90;;;;;;4999372;28;20076;-72
2023/04/29 01:01:03;;;;;;;33.85;22.23;;;11.20;99.90;;;;;;4999307;28;20025;-72
2023/04/29 01:03:29;;;;;;;35.38;22.40;;;11.20;99.90;;;;;;5015480;28;20121;-72
2023/04/29 01:06:19;;;;;;;37.65;23.60;;;11.20;99.90;;;;;;5017000;28;20034;-72
2023/04/29 01:09:15;;;;;;;36.40;23.63;;;11.20;99.90;;;;;;4999392;28;20037;-72
2023/04/29 01:11:53;;;;;;;36.95;23.75;;;11.20;99.90;;;;;;4999400;28;20030;-71
2023/04/29 01:14:19;;;;;;;33.08;23.10;;;11.20;99.90;;;;;;5016395;28;20394;-71
2023/04/29 01:16:55;;;;;;;37.03;23.75;;;11.20;99.90;;;;;;5016548;28;20097;-71
2023/04/29 01:19:37;;;;;;;39.45;23.55;;;11.20;99.90;;;;;;4999395;28;20080;-71
2023/04/29 01:22:03;;;;;;;40.15;22.85;;;11.20;99.90;;;;;;5016956;28;20030;-71
2023/04/29 01:24:29;;;;;;;38.25;23.13;;;11.10;99.90;;;;;;5016308;28;20045;-70
2023/04/29 01:27:08;;;;;;;39.50;22.13;;;11.10;99.90;;;;;;4998764;28;20126;-71
2023/04/29 01:30:16;;;;;;;43.50;26.08;;;11.10;99.90;;;;;;4999221;28;20058;-70
2023/04/29 01:32:57;;;;;;;44.42;25.30;;;11.10;99.90;;;;;;4987767;28;20037;-71
2023/04/29 01:35:45;;;;;;;39.20;24.55;;;11.10;99.90;;;;;;4998524;28;20061;-71
2023/04/29 01:38:11;;;;;;;38.33;23.40;;;11.10;99.90;;;;;;5016234;28;20076;-72
2023/04/29 01:40:43;;;;;;;39.70;24.50;;;11.00;99.90;;;;;;5016388;28;20022;-71
2023/04/29 01:43:11;;;;;;;38.63;24.35;;;11.10;99.90;;;;;;4998472;28;20409;-71
2023/04/29 01:45:41;;;;;;;43.38;24.60;;;11.10;99.90;;;;;;5016075;28;20054;-70
2023/04/29 01:48:07;;;;;;;43.70;25.02;;;11.10;99.90;;;;;;5015915;28;20054;-70
2023/04/29 01:50:33;;;;;;;43.10;24.75;;;11.10;99.90;;;;;;4998331;28;20449;-71
2023/04/29 01:52:59;;;;;;;42.22;23.55;;;11.10;99.90;;;;;;4998205;28;20076;-71
2023/04/29 01:55:25;;;;;;;41.50;24.35;;;11.10;99.90;;;;;;5014918;28;20116;-71
2023/04/29 01:57:50;;;;;;;40.20;23.25;;;11.10;99.90;;;;;;5015825;28;20026;-71
2023/04/29 02:00:16;;;;;;;38.58;24.35;;;11.10;99.90;;;;;;4998521;28;20457;-70
2023/04/29 02:02:42;;;;;;;39.17;24.08;;;11.10;99.90;;;;;;4997225;28;20038;-71
2023/04/29 02:05:08;;;;;;;38.88;23.98;;;11.10;99.90;;;;;;5015543;28;20105;-71
2023/04/29 02:07:34;;;;;;;38.20;23.60;;;11.10;99.90;;;;;;5015812;28;20075;-70
2023/04/29 02:10:00;;;;;;;39.35;23.67;;;11.10;99.90;;;;;;4997879;28;20022;-70
2023/04/29 02:12:25;;;;;;;34.60;22.13;;;11.10;99.90;;;;;;5014453;28;20030;-70
2023/04/29 02:14:52;;;;;;;36.83;22.27;;;11.10;99.90;;;;;;5015576;28;20029;-70
2023/04/29 02:17:17;;;;;;;38.20;23.30;;;11.10;99.90;;;;;;5015422;28;20057;-70
2023/04/29 02:19:43;;;;;;;36.60;22.20;;;11.10;99.90;;;;;;4997758;28;20033;-70
2023/04/29 02:22:11;;;;;;;38.28;23.33;;;11.10;99.90;;;;;;4997927;28;20030;-70
2023/04/29 02:24:37;;;;;;;39.22;24.25;;;11.10;99.90;;;;;;4997788;28;20128;-70
2023/04/29 02:27:04;;;;;;;37.10;23.98;;;11.10;99.90;;;;;;4997685;28;20139;-70
2023/04/29 02:29:31;;;;;;;36.38;23.52;;;11.10;99.90;;;;;;4997637;28;20056;-70
2023/04/29 02:31:56;;;;;;;38.63;23.83;;;11.10;99.90;;;;;;5015377;28;20113;-70
2023/04/29 02:34:22;;;;;;;34.88;21.83;;;11.00;99.90;;;;;;5014880;28;20481;-70
2023/04/29 02:36:48;;;;;;;38.58;22.83;;;11.10;99.90;;;;;;5015190;28;20026;-70
2023/04/29 02:39:15;;;;;;;37.22;20.67;;;11.10;99.90;;;;;;5014848;28;20032;-70
2023/04/29 02:41:41;;;;;;;33.05;21.50;;;11.10;99.90;;;;;;5015224;28;20040;-70
2023/04/29 02:44:07;;;;;;;39.60;21.58;;;11.10;99.90;;;;;;4997176;28;20129;-70
2023/04/29 02:46:34;;;;;;;33.70;20.00;;;11.10;99.90;;;;;;4996780;28;20062;-70
2023/04/29 02:49:00;;;;;;;33.35;21.23;;;11.10;99.90;;;;;;5014803;28;20026;-70
2023/04/29 02:51:26;;;;;;;35.05;20.20;;;11.10;99.90;;;;;;5015235;28;20022;-69
2023/04/29 02:53:52;;;;;;;32.33;20.85;;;11.10;99.90;;;;;;5014712;28;20123;-70
2023/04/29 02:56:18;;;;;;;30.83;19.48;;;11.10;99.90;;;;;;5015032;28;20451;-69
2023/04/29 02:58:44;;;;;;;29.80;18.25;;;11.10;99.90;;;;;;4996655;28;20359;-70
2023/04/29 03:01:10;;;;;;;32.58;20.05;;;11.10;99.90;;;;;;5014588;28;20105;-69
2023/04/29 03:03:36;;;;;;;31.33;19.85;;;11.10;99.90;;;;;;5014813;28;20033;-69
2023/04/29 03:06:02;;;;;;;33.28;19.55;;;11.10;99.90;;;;;;5014462;28;20029;-70
2023/04/29 03:08:28;;;;;;;30.98;18.85;;;11.10;99.90;;;;;;5014546;28;20037;-69
2023/04/29 03:10:53;;;;;;;32.88;20.60;;;11.10;99.90;;;;;;5014135;28;20029;-70
2023/04/29 03:13:19;;;;;;;27.25;17.50;;;11.10;99.90;;;;;;5013090;28;20037;-70
2023/04/29 03:15:45;;;;;;;32.25;18.08;;;11.10;99.90;;;;;;5014397;28;20026;-70
2023/04/29 03:18:11;;;;;;;25.02;17.23;;;11.10;99.90;;;;;;5014337;28;20036;-69
2023/04/29 03:20:37;;;;;;;27.52;17.48;;;11.10;99.90;;;;;;4996701;28;20116;-69
2023/04/29 03:23:02;;;;;;;25.75;17.25;;;11.10;99.90;;;;;;4996740;28;20137;-69
2023/04/29 03:25:29;;;;;;;28.38;17.40;;;11.10;99.90;;;;;;5014209;28;20369;-69
2023/04/29 03:27:55;;;;;;;35.35;18.40;;;11.10;99.90;;;;;;4996588;28;20044;-70
2023/04/29 03:30:20;;;;;;;25.67;16.73;;;11.10;99.90;;;;;;5013994;28;20034;-70
2023/04/29 03:32:46;;;;;;;26.58;17.23;;;11.10;99.90;;;;;;5014184;28;20030;-70
2023/04/29 03:35:12;;;;;;;28.02;15.95;;;11.10;99.90;;;;;;4996514;28;20029;-70
2023/04/29 03:37:37;;;;;;;25.75;16.77;;;11.10;99.90;;;;;;5014114;28;20033;-70
2023/04/29 03:40:05;;;;;;;29.08;17.85;;;11.10;99.90;;;;;;5014393;28;20473;-70
2023/04/29 03:42:30;;;;;;;34.72;20.20;;;11.10;99.90;;;;;;5013970;28;20030;-70
2023/04/29 03:44:56;;;;;;;31.48;19.73;;;11.10;99.90;;;;;;4996203;28;20057;-70
2023/04/29 03:47:22;;;;;;;29.40;16.55;;;11.10;99.90;;;;;;4996770;28;20026;-70
2023/04/29 03:49:48;;;;;;;25.77;16.08;;;11.10;99.90;;;;;;5014213;28;20351;-70
2023/04/29 03:52:14;;;;;;;33.78;18.42;;;11.10;99.90;;;;;;4996323;28;20034;-71
2023/04/29 03:54:40;;;;;;;36.40;18.75;;;11.20;99.90;;;;;;5013960;28;20029;-74
2023/04/29 03:57:06;;;;;;;29.98;17.67;;;11.10;99.90;;;;;;5012943;28;20104;-74
2023/04/29 03:59:32;;;;;;;24.20;14.68;;;11.20;99.90;;;;;;4996290;28;20026;-74
2023/04/29 04:01:57;;;;;;;28.58;15.23;;;11.20;99.90;;;;;;5013953;28;20549;-74
2023/04/29 04:04:23;;;;;;;23.90;11.90;;;11.20;99.90;;;;;;4996267;28;20489;-74
2023/04/29 04:06:50;;;;;;;29.88;14.57;;;11.30;99.90;;;;;;4996200;28;20026;-74
2023/04/29 04:09:17;;;;;;;23.50;13.23;;;11.30;99.90;;;;;;5013815;28;20018;-73
2023/04/29 04:11:43;;;;;;;24.98;14.45;;;11.30;99.90;;;;;;5013805;28;20026;-74
2023/04/29 04:14:09;;;;;;;24.10;12.95;;;11.30;99.90;;;;;;5013907;28;20120;-74
2023/04/29 04:16:35;;;;;;;23.90;12.50;;;11.30;99.90;;;;;;5013751;28;20172;-75
2023/04/29 04:19:01;;;;;;;23.90;12.18;;;11.30;99.90;;;;;;5013655;28;20037;-74
2023/04/29 04:21:26;;;;;;;19.80;12.05;;;11.30;99.90;;;;;;5013555;28;20036;-74
2023/04/29 04:23:52;;;;;;;19.40;11.00;;;11.30;99.90;;;;;;4995904;28;20041;-73
2023/04/29 04:26:19;;;;;;;20.98;11.20;;;11.40;99.90;;;;;;5014192;28;20034;-74
2023/04/29 04:28:45;;;;;;;17.95;11.45;;;11.40;99.90;;;;;;5017140;28;20022;-73
2023/04/29 04:31:13;;;;;;;23.13;11.57;;;11.30;99.90;;;;;;4999759;28;20481;-74
2023/04/29 04:33:39;;;;;;;18.02;9.40;;;11.30;99.90;;;;;;5017533;28;20113;-72
2023/04/29 04:36:05;;;;;;;13.68;7.82;;;11.40;99.90;;;;;;5016994;28;20022;-71
2023/04/29 04:38:31;;;;;;;12.23;7.53;;;11.40;99.90;;;;;;4999595;28;20041;-71
2023/04/29 04:40:57;;;;;;;11.85;6.07;;;11.40;99.90;;;;;;4999471;28;20041;-71
2023/04/29 04:43:23;;;;;;;6.47;3.58;;;11.40;99.90;;;;;;4999379;28;20042;-71
2023/04/29 04:45:49;;;;;;;28.08;9.27;;;11.40;99.90;;;;;;5017152;28;20046;-71
2023/04/29 04:48:15;;;;;;;17.25;10.30;;;11.40;99.90;;;;;;5017329;28;20026;-71
2023/04/29 04:50:40;;;;;;;17.02;11.15;;;11.40;99.90;;;;;;5016994;28;20029;-71
2023/04/29 04:53:06;;;;;;;15.07;7.78;;;11.50;99.90;;;;;;5016943;28;20034;-71
2023/04/29 04:55:32;;;;;;;9.80;5.80;;;11.50;99.90;;;;;;4999337;28;20021;-71
2023/04/29 04:57:58;;;;;;;11.35;6.88;;;11.50;99.90;;;;;;5017015;28;20030;-71
2023/04/29 05:00:23;;;;;;;11.57;6.97;;;11.50;99.90;;;;;;4999389;28;20030;-70
2023/04/29 05:02:49;;;;;;;12.15;6.18;;;11.60;99.90;;;;;;5017097;28;20038;-73
2023/04/29 05:05:15;;;;;;;11.88;5.97;;;11.60;99.90;;;;;;5015625;28;20030;-73
2023/04/29 05:07:41;;;;;;;8.27;4.57;;;11.70;99.90;;;;;;5016756;28;20022;-73
2023/04/29 05:10:07;;;;;;;7.72;4.68;;;11.80;99.90;;;;;;4999747;28;20080;-73
2023/04/29 05:12:34;;;;;;;6.65;4.45;;;11.90;99.90;;;;;;4998994;28;20054;-72
2023/04/29 05:15:00;;;;;;;6.03;3.88;;;12.00;99.90;;;;;;5016544;28;20068;-72
2023/04/29 05:17:26;;;;;;;10.23;4.88;;;12.00;99.90;;;;;;5016523;28;20488;-72
2023/04/29 05:19:51;;;;;;;7.55;4.82;;;12.00;99.90;;;;;;5016144;28;20025;-72
2023/04/29 05:22:17;;;;;;;6.07;4.32;;;12.10;99.90;;;;;;5016384;28;20462;-72
2023/04/29 05:24:42;;;;;;;9.85;4.40;;;12.20;99.90;;;;;;4998791;28;20485;-71
2023/04/29 05:27:08;;;;;;;5.38;4.65;;;12.10;99.90;;;;;;5016560;28;20053;-72
2023/04/29 05:29:34;;;;;;;6.18;4.13;;;12.10;99.90;;;;;;4998606;28;20033;-71
2023/04/29 05:32:00;;;;;;;6.78;4.60;;;12.10;99.90;;;;;;5016257;28;20026;-72
2023/04/29 05:34:25;;;;;;;5.80;4.55;;;12.10;99.90;;;;;;5016236;28;20113;-71
2023/04/29 05:36:51;;;;;;;7.22;4.53;;;12.20;99.90;;;;;;4998496;28;20053;-72
2023/04/29 05:39:17;;;;;;;5.80;3.97;;;12.20;99.90;;;;;;5016085;28;20099;-68
2023/04/29 05:41:43;;;;;;;4.93;3.63;;;12.20;99.90;;;;;;5016259;28;20037;-70
2023/04/29 05:44:09;;;;;;;6.18;3.95;;;12.30;99.90;;;;;;5015929;28;20034;-70
2023/04/29 05:46:34;;;;;;;3.80;3.38;;;12.30;99.90;;;;;;4997970;28;20056;-70
2023/04/29 05:49:00;;;;;;;6.40;4.55;;;12.40;99.90;;;;;;4998304;28;20029;-70
2023/04/29 05:51:27;;;;;;;4.53;4.05;;;12.50;99.90;;;;;;4998231;28;20026;-72
2023/04/29 05:53:53;;;;;;;5.90;4.80;;;12.50;99.90;;;;;;4998366;28;20033;-72
2023/04/29 05:56:19;;;;;;;7.55;4.50;;;12.60;99.90;;;;;;5015731;28;20124;-70
2023/04/29 05:58:45;;;;;;;5.00;4.50;;;12.60;99.90;;;;;;4997965;28;20026;-70
2023/04/29 06:01:10;;;;;;;7.72;4.80;;;12.70;99.90;;;;;;5015680;28;20462;-62
2023/04/29 06:03:36;;;;;;;8.50;5.68;;;12.70;99.90;;;;;;5015513;28;20073;-62
2023/04/29 06:06:02;;;;;;;7.57;4.93;;;12.80;99.90;;;;;;5015551;28;20117;-63
2023/04/29 06:08:28;;;;;;;5.78;4.68;;;12.90;99.90;;;;;;5015524;28;20032;-62
2023/04/29 06:10:54;;;;;;;4.80;4.10;;;13.00;99.90;;;;;;5015352;28;20068;-69
2023/04/29 06:13:20;;;;;;;5.10;4.03;;;13.10;99.90;;;;;;4997809;28;20030;-69
2023/04/29 06:15:46;;;;;;;3.58;2.97;;;13.30;99.90;;;;;;4997970;28;20026;-70
2023/04/29 06:18:11;;;;;;;2.83;2.63;;;13.50;99.90;;;;;;4997781;28;20030;-71
2023/04/29 06:20:37;;;;;;;2.83;2.30;;;13.60;99.90;;;;;;4997617;28;20033;-70
2023/04/29 06:23:04;;;;;;;3.45;2.53;;;13.70;99.90;;;;;;5015381;28;20042;-71
2023/04/29 06:25:29;;;;;;;7.13;2.80;;;13.80;99.90;;;;;;5015221;28;20060;-71
2023/04/29 06:27:56;;;;;;;2.88;2.45;;;13.90;99.90;;;;;;4997533;28;20054;-71
2023/04/29 06:30:22;;;;;;;3.78;2.80;;;13.90;99.90;;;;;;4997513;28;20022;-70
2023/04/29 06:32:48;;;;;;;3.65;2.85;;;13.90;99.90;;;;;;4997477;28;20095;-70
2023/04/29 06:35:14;;;;;;;11.02;3.55;;;13.90;99.90;;;;;;4997820;28;20112;-71
2023/04/29 06:37:40;;;;;;;4.38;3.70;;;13.90;99.90;;;;;;4997363;28;20026;-71
2023/04/29 06:40:07;;;;;;;5.30;4.10;;;14.00;99.90;;;;;;4997902;28;20033;-71
2023/04/29 06:42:32;;;;;;;7.10;4.15;;;14.00;99.90;;;;;;5015051;28;20018;-71
2023/04/29 06:44:58;;;;;;;5.93;4.35;;;14.70;99.90;;;;;;5014730;28;20061;-70
2023/04/29 06:47:24;;;;;;;3.50;3.20;;;15.40;99.90;;;;;;4997541;28;20034;-70
2023/04/29 06:49:49;;;;;;;4.20;2.40;;;16.20;99.90;;;;;;4996709;28;20033;-70
2023/04/29 06:52:15;;;;;;;3.00;2.05;;;16.40;99.90;;;;;;5014887;28;20022;-70
2023/04/29 06:54:41;;;;;;;4.28;2.50;;;16.40;99.90;;;;;;5014691;28;20026;-71
2023/04/29 06:57:06;;;;;;;2.60;2.40;;;16.30;99.90;;;;;;5014471;28;20489;-72
2023/04/29 06:59:32;;;;;;;2.47;2.28;;;16.00;99.90;;;;;;5014196;28;20488;-72
2023/04/29 07:01:57;;;;;;;4.38;1.90;;;16.00;99.90;;;;;;4996996;28;20026;-62
2023/04/29 07:04:23;;;;;;;1.77;1.42;;;16.40;99.90;;;;;;5014273;28;20077;-62
2023/04/29 07:06:50;;;;;;;0.98;0.88;;;16.70;99.90;;;;;;5014177;28;20029;-63
2023/04/29 07:09:15;;;;;;;2.10;1.10;;;17.10;99.90;;;;;;5014429;28;20022;-62
2023/04/29 07:11:41;;;;;;;1.63;1.25;;;17.50;99.90;;;;;;5012208;28;20459;-63
2023/04/29 07:14:07;;;;;;;1.48;0.80;;;17.80;99.90;;;;;;4996651;28;20036;-72
2023/04/29 07:16:33;;;;;;;0.73;0.60;;;18.00;99.90;;;;;;5014622;28;20458;-71
2023/04/29 07:18:59;;;;;;;4.10;0.98;;;18.20;99.90;;;;;;5012882;28;20033;-71
2023/04/29 07:21:25;;;;;;;1.70;1.60;;;18.50;99.90;;;;;;4996573;28;20029;-71
2023/04/29 07:23:51;;;;;;;2.33;1.50;;;18.40;99.90;;;;;;5014135;28;20034;-71
2023/04/29 07:26:17;;;;;;;3.33;1.33;;;18.20;99.90;;;;;;5013761;28;20037;-71
2023/04/29 07:28:43;;;;;;;1.48;1.38;;;18.10;99.90;;;;;;5014123;28;20030;-70
2023/04/29 07:31:11;;;;;;;1.00;1.00;;;18.60;99.90;;;;;;4996261;28;20026;-70
2023/04/29 07:33:36;;;;;;;1.73;0.40;;;19.20;99.90;;;;;;4996566;28;20103;-71
2023/04/29 07:36:03;;;;;;;0.50;0.22;;;19.80;99.90;;;;;;5014017;28;20073;-71
2023/04/29 07:38:29;;;;;;;2.63;0.38;;;20.10;99.90;;;;;;5014195;28;20029;-70
2023/04/29 07:40:55;;;;;;;0.40;0.22;;;20.40;99.90;;;;;;5014477;28;20026;-71
2023/04/29 07:43:20;;;;;;;4.22;0.73;;;20.60;99.90;;;;;;4996320;28;20380;-69
2023/04/29 07:45:50;;;;;;;5.20;0.88;;;21.00;99.90;;;;;;5013041;28;20046;-70
2023/04/29 07:48:15;;;;;;;0.95;0.82;;;21.20;99.90;;;;;;4995962;28;20030;-71
2023/04/29 07:50:41;;;;;;;0.80;0.50;;;21.20;99.90;;;;;;5013466;28;20088;-72
2023/04/29 07:53:07;;;;;;;0.50;0.40;;;21.40;99.90;;;;;;5013103;28;20030;-70
2023/04/29 07:55:33;;;;;;;1.27;0.68;;;21.10;99.90;;;;;;4995331;28;20575;-72
2023/04/29 07:57:59;;;;;;;5.15;0.30;;;21.40;99.90;;;;;;4995469;28;20046;-71
2023/04/29 08:00:26;;;;;;;0.40;0.10;;;21.60;99.90;;;;;;5012647;28;20032;-70
2023/04/29 08:02:53;;;;;;;0.52;0.20;;;21.10;98.50;;;;;;5016009;28;20081;-70
2023/04/29 08:05:20;;;;;;;0.75;0.28;;;20.70;99.90;;;;;;5016652;28;20096;-71
2023/04/29 08:07:49;;;;;;;1.27;0.35;;;20.40;99.90;;;;;;5016644;28;20132;-71
2023/04/29 08:10:15;;;;;;;1.73;0.45;;;19.90;99.90;;;;;;5016268;28;20030;-72
2023/04/29 08:12:44;;;;;;;0.60;0.20;;;19.70;99.90;;;;;;4999256;28;20037;-71
2023/04/29 08:15:10;;;;;;;0.13;0.13;;;19.40;99.90;;;;;;4999017;28;20022;-70
2023/04/29 08:17:36;;;;;;;0.50;0.10;;;19.20;99.90;;;;;;5016417;28;20030;-70
2023/04/29 08:20:02;;;;;;;5.20;0.40;;;18.90;99.90;;;;;;5015905;28;20045;-69
2023/04/29 08:22:28;;;;;;;0.88;0.13;;;18.80;99.90;;;;;;5016512;28;20038;-70
2023/04/29 08:24:54;;;;;;;0.73;0.20;;;18.70;99.90;;;;;;5016196;28;20042;-70
2023/04/29 08:27:20;;;;;;;0.30;0.30;;;18.60;99.90;;;;;;5014907;28;20030;-71
2023/04/29 08:29:47;;;;;;;3.20;0.30;;;18.30;99.90;;;;;;5016123;28;20032;-71
2023/04/29 08:32:13;;;;;;;0.22;0.20;;;18.10;99.90;;;;;;5015346;28;20033;-71
2023/04/29 08:34:40;;;;;;;0.25;0.25;;;17.90;99.90;;;;;;4998373;28;20084;-71
2023/04/29 08:37:06;;;;;;;3.83;0.20;;;17.80;99.90;;;;;;4998423;28;20053;-71
2023/04/29 08:39:31;;;;;;;0.13;0.13;;;17.60;99.90;;;;;;4998385;28;20441;-71
2023/04/29 08:41:57;;;;;;;0.40;0.40;;;17.50;99.90;;;;;;4998423;28;20065;-71
2023/04/29 08:44:25;;;;;;;0.20;0.10;;;17.10;99.90;;;;;;4998454;28;20440;-72
2023/04/29 08:46:51;;;;;;;0.40;0.30;;;16.80;99.90;;;;;;4977095;28;1160894;-72
2023/04/29 08:49:17;;;;;;;1.98;0.30;;;16.60;99.90;;;;;;4999484;28;20042;-72
2023/04/29 08:51:43;;;;;;;4.10;1.45;;;16.20;99.90;;;;;;4999366;28;20038;-72
2023/04/29 08:54:10;;;;;;;1.85;0.32;;;15.90;99.90;;;;;;4999186;28;20034;-72
2023/04/29 08:56:36;;;;;;;0.43;0.20;;;15.60;99.90;;;;;;5016585;28;20033;-72
2023/04/29 08:59:03;;;;;;;2.25;0.57;;;15.30;99.90;;;;;;5017052;28;20106;-73
2023/04/29 09:01:29;;;;;;;4.15;1.13;;;15.10;99.90;;;;;;4999363;28;20060;-73
2023/04/29 09:04:15;;;;;;;2.20;0.50;;;14.90;99.90;;;;;;5016674;28;20446;-73
2023/04/29 09:06:41;;;;;;;3.88;0.60;;;14.80;99.90;;;;;;4999490;28;20355;-73
2023/04/29 09:09:07;;;;;;;0.45;0.22;;;14.80;99.90;;;;;;5016722;28;20081;-73
2023/04/29 09:11:34;;;;;;;2.92;0.38;;;14.60;99.90;;;;;;5016630;28;20030;-73
2023/04/29 09:14:01;;;;;;;0.70;0.35;;;14.50;99.90;;;;;;4998786;28;20029;-72
2023/04/29 09:16:27;;;;;;;0.68;0.60;;;14.60;99.90;;;;;;4998962;28;20453;-71
2023/04/29 09:18:54;;;;;;;3.50;0.32;;;14.90;99.90;;;;;;4998866;28;20033;-72
2023/04/29 09:21:22;;;;;;;0.30;0.30;;;15.60;99.90;;;;;;5016847;28;20033;-70
2023/04/29 09:23:54;;;;;;;2.17;0.40;;;16.20;99.90;;;;;;5016388;28;20037;-70
2023/04/29 09:26:20;;;;;;;0.20;0.13;;;16.70;99.90;;;;;;5016348;28;20054;-70
2023/04/29 09:28:46;;;;;;;2.30;1.23;;;16.90;99.90;;;;;;4998784;28;20036;-70
2023/04/29 09:31:12;;;;;;;1.85;0.30;;;17.00;99.90;;;;;;5015256;28;20105;-71
2023/04/29 09:33:55;;;;;;;0.77;0.20;;;17.20;99.90;;;;;;5018209;28;20539;-71
2023/04/29 09:36:57;;;;;;;1.88;0.20;;;17.30;99.90;;;;;;4998663;28;20030;-71
2023/04/29 09:39:23;;;;;;;1.25;0.40;;;17.40;99.90;;;;;;4974838;28;20490;-72
2023/04/29 09:41:52;;;;;;;2.35;0.20;;;17.90;99.90;;;;;;5015780;28;20048;-61
2023/04/29 09:44:26;;;;;;;0.85;0.20;;;18.90;99.90;;;;;;4998007;28;20041;-62
2023/04/29 09:46:56;;;;;;;1.50;0.20;;;19.90;99.90;;;;;;5016041;28;20050;-63
2023/04/29 09:49:24;;;;;;;7.78;1.60;;;20.50;99.90;;;;;;5016186;28;20037;-62
2023/04/29 09:51:54;;;;;;;1.00;0.20;;;20.90;99.90;;;;;;5015767;28;20022;-62
2023/04/29 09:54:21;;;;;;;0.38;0.30;;;21.10;99.90;;;;;;5015732;28;20030;-63
2023/04/29 09:56:50;;;;;;;0.35;0.30;;;21.40;99.90;;;;;;4997895;28;20034;-62
2023/04/29 09:59:16;;;;;;;0.85;0.50;;;21.70;99.90;;;;;;5014032;28;20060;-63
2023/04/29 10:01:42;;;;;;;2.92;0.30;;;21.80;99.90;;;;;;5016751;28;20176;-63
2023/04/29 10:04:11;;;;;;;0.43;0.30;;;22.10;99.90;;;;;;4997801;28;20517;-63
2023/04/29 10:06:39;;;;;;;2.90;0.40;;;22.20;99.00;;;;;;4997940;28;20045;-62
2023/04/29 10:09:07;;;;;;;1.55;0.32;;;22.30;98.50;;;;;;4996715;28;20070;-62
2023/04/29 10:11:34;;;;;;;0.52;0.20;;;22.30;96.00;;;;;;5023282;28;20109;-62
2023/04/29 10:14:00;;;;;;;1.77;0.17;;;22.40;97.50;;;;;;4997547;28;20037;-62
2023/04/29 10:16:36;;;;;;;0.35;0.30;;;22.70;95.40;;;;;;5014840;28;20032;-62
2023/04/29 10:19:06;;;;;;;0.63;0.50;;;23.10;95.00;;;;;;5023647;28;20033;-62
2023/04/29 10:21:32;;;;;;;0.82;0.20;;;23.20;95.50;;;;;;5015290;28;20462;-71
2023/04/29 10:24:00;;;;;;;2.42;0.40;;;22.80;95.60;;;;;;5010883;28;20026;-71
2023/04/29 10:26:30;;;;;;;0.35;0.32;;;22.90;95.00;;;;;;5014537;28;20045;-70
2023/04/29 10:28:58;;;;;;;2.17;0.30;;;23.20;91.70;;;;;;5013797;28;20022;-71
2023/04/29 10:31:31;;;;;;;1.23;0.50;;;22.40;91.70;;;;;;4997443;28;20038;-70
2023/04/29 10:33:57;;;;;;;4.72;0.40;;;21.80;93.80;;;;;;4997042;28;20026;-71
2023/04/29 10:36:26;;;;;;;3.00;0.43;;;21.10;94.70;;;;;;5015000;28;20026;-70
2023/04/29 10:38:56;;;;;;;4.45;0.35;;;21.00;95.70;;;;;;4997420;28;20033;-70
2023/04/29 10:41:25;;;;;;;2.15;0.43;;;21.40;95.50;;;;;;5014778;28;20034;-70
2023/04/29 10:43:55;;;;;;;0.45;0.22;;;21.40;95.30;;;;;;5000342;28;20034;-70
2023/04/29 10:46:27;;;;;;;0.50;0.50;;;22.20;92.20;;;;;;4993194;28;20133;-70
2023/04/29 10:49:11;;;;;;;1.02;0.45;;;21.60;93.00;;;;;;4994410;28;20034;-71
2023/04/29 10:51:41;;;;;;;1.00;0.68;;;21.30;93.80;;;;;;4993482;28;20022;-71
2023/04/29 10:54:19;;;;;;;0.80;0.57;;;21.50;94.10;;;;;;4993366;28;20133;-71
2023/04/29 10:56:53;;;;;;;2.50;0.70;;;21.80;94.40;;;;;;4993523;28;20118;-70
2023/04/29 10:59:41;;;;;;;0.88;0.57;;;22.30;93.00;;;;;;4992687;28;20030;-71
2023/04/29 11:02:09;;;;;;;1.13;0.70;;;22.30;90.60;;;;;;4994153;28;20022;-70
2023/04/29 11:04:55;;;;;;;1.77;0.50;;;21.50;92.40;;;;;;4995552;28;20046;-70
2023/04/29 11:07:28;;;;;;;2.58;0.60;;;20.60;95.00;;;;;;4995951;28;20061;-70
2023/04/29 11:09:55;;;;;;;2.92;0.93;;;20.10;96.00;;;;;;4990274;28;20037;-71
2023/04/29 11:12:20;;;;;;;1.00;0.90;;;19.70;98.60;;;;;;4994809;28;20022;-70
2023/04/29 11:14:50;;;;;;;0.60;0.50;;;19.60;99.60;;;;;;4993468;28;20465;-70
2023/04/29 11:17:22;;;;;;;0.98;0.70;;;19.90;99.90;;;;;;4994717;28;20030;-69
2023/04/29 11:19:51;;;;;;;1.48;0.60;;;19.90;99.60;;;;;;4993412;28;20030;-69
2023/04/29 11:22:23;;;;;;;1.30;0.63;;;19.80;99.90;;;;;;4994853;28;20068;-69
2023/04/29 11:24:55;;;;;;;4.85;1.00;;;19.80;99.90;;;;;;4993915;28;20053;-69
2023/04/29 11:27:24;;;;;;;1.10;0.82;;;19.50;99.90;;;;;;4994299;28;20109;-70
2023/04/29 11:29:57;;;;;;;1.77;0.90;;;19.30;99.90;;;;;;4994895;28;20030;-70
2023/04/29 11:32:24;;;;;;;0.73;0.68;;;19.30;99.90;;;;;;4993312;28;20466;-69
2023/04/29 11:34:50;;;;;;;0.70;0.70;;;19.40;99.90;;;;;;4993135;28;20069;-70
2023/04/29 11:37:24;;;;;;;1.45;0.73;;;19.70;99.90;;;;;;4994388;28;20033;-71
2023/04/29 11:39:51;;;;;;;0.63;0.50;;;19.90;99.90;;;;;;4994303;28;20034;-69
2023/04/29 11:42:21;;;;;;;1.40;0.63;;;20.90;97.00;;;;;;4994374;28;20022;-69
2023/04/29 11:44:46;;;;;;;0.57;0.57;;;21.70;95.80;;;;;;4994782;28;20034;-69
2023/04/29 11:47:12;;;;;;;2.15;0.70;;;22.00;93.30;;;;;;5014072;28;20033;-65
2023/04/29 11:49:38;;;;;;;3.78;0.68;;;21.90;92.90;;;;;;5013850;28;20048;-65
2023/04/29 11:52:04;;;;;;;1.02;0.60;;;21.70;92.50;;;;;;5014183;28;20450;-65
2023/04/29 11:54:29;;;;;;;0.85;0.70;;;21.40;92.80;;;;;;4996119;28;20032;-68
2023/04/29 11:56:57;;;;;;;1.58;0.73;;;21.20;93.60;;;;;;5014215;28;20029;-64
2023/04/29 11:59:23;;;;;;;0.93;0.68;;;21.00;93.50;;;;;;5013922;28;20026;-65
2023/04/29 12:01:51;;;;;;;2.53;1.00;;;20.90;94.10;;;;;;4996244;28;20168;-66
2023/04/29 12:04:18;;;;;;;2.20;0.75;;;20.80;94.60;;;;;;5013519;28;20475;-64
2023/04/29 12:06:45;;;;;;;1.10;1.05;;;20.60;95.40;;;;;;5013663;28;20033;-64
2023/04/29 12:09:10;;;;;;;4.65;0.80;;;20.50;96.00;;;;;;4995772;28;20382;-65
2023/04/29 12:11:36;;;;;;;3.05;0.70;;;20.10;95.90;;;;;;5013891;28;20033;-64
2023/04/29 12:14:05;;;;;;;1.60;0.82;;;19.80;96.80;;;;;;4995846;28;20537;-64
2023/04/29 12:16:31;;;;;;;0.90;0.73;;;19.60;97.30;;;;;;4996091;28;20034;-64
2023/04/29 12:18:58;;;;;;;1.35;0.90;;;19.30;98.90;;;;;;5014162;28;20060;-71
2023/04/29 12:21:25;;;;;;;2.40;1.30;;;19.10;99.50;;;;;;5013696;28;20041;-68
2023/04/29 12:23:51;;;;;;;5.15;1.30;;;18.90;99.90;;;;;;5013606;28;20116;-68
2023/04/29 12:26:19;;;;;;;1.45;0.95;;;18.70;99.90;;;;;;5013637;28;20041;-68
2023/04/29 12:28:47;;;;;;;2.95;1.15;;;18.50;99.90;;;;;;5013601;28;20061;-68
2023/04/29 12:31:14;;;;;;;2.97;1.55;;;18.40;99.90;;;;;;4996010;28;20030;-68
2023/04/29 12:33:43;;;;;;;5.15;1.55;;;18.30;99.90;;;;;;4995881;28;20117;-68
2023/04/29 12:36:19;;;;;;;;;;;18.10;99.90;;;;;;5013605;28;20096;-69
2023/04/29 12:38:46;;;;;;;2.03;0.90;;;17.60;99.90;;;;;;5013278;28;19964;-69